Falls Church, VA

11:56 AM EDT on August 29, 2015 (GMT -0400)
Broyhill Park | | Change Station
CLOSE
Current Station
Personal Weather Station
Location: Falls Church, VA
Elevation: 295 ft
Nearby Weather Stations

Elev 295 ft 38.86 °N, 77.20 °W | Updated 15 seconds ago

Partly Cloudy
Partly Cloudy
79.0 °F
Feels Like 81 °F
N
0.0
Wind Variable Wind from WNW
Gusts 8.0 mph

Today
High -- | Low -- °F
--% Chance of Precip.
Yesterday
High -- | Low -- °F
Precip. -- in
6:34 AM 7:44 PM
Full, 100% visible
Pressure 30.21 in
Visibility 10.0 miles
Clouds Scattered Clouds 25000 ft
Heat Index 81 °F
Dew Point 65 °F
Humidity 62%
Rainfall 0.00 in
Snow Depth Not available.
UV 7 out of 12
Pollen 10.30 out of 12
Air Quality Not available.
Flu Activity Not available.
METAR KDCA 291552Z 22012KT 10SM SCT250 29/16 A3021 RMK AO2 SLP229 T02890156
Pressure 30.21 in
Visibility 10.0 miles
Clouds Scattered Clouds 25000 ft
Heat Index 81 °F
Dew Point 65 °F
Humidity 62%
Rainfall 0.00 in
Snow Depth Not available.
UV 7 out of 12
Pollen 10.30 out of 12
Air Quality Not available.
Flu Activity Not available.
METAR KDCA 291552Z 22012KT 10SM SCT250 29/16 A3021 RMK AO2 SLP229 T02890156

10-Day Weather Forecast

×

Almanac

Astronomy

Aug. 29, 2015 Rise Set
Actual Time
Civil Twilight
Nautical Twilight
Astronomical Twilight
Moon
Length of Visible Light
Length of Day
Tomorrow will be .
, % of the Moon is Illuminated

Today's Extremes

State Highs State Lows

Community

WunderPhotos

Upload Photos

1,850,700 photos uploaded!

WunderBlogs® & News

Nearby

Air Quality

  Air Quality AQ Index Pollutant
Not available.

Snow Depth

Station Depth Elevation

Earthquake Activity

City Distance Mag. Time & Date
Minimum magnitude displayed is 2.5.

Coastal Water Temperatures

Place Temperature

Stations

Nearby Weather Stations

Station Location Temp. Windchill Dew Point Humidity Wind Precip. Elev Updated Type